sensor_id;sensor_type;location;lat;lon;timestamp;P1;durP1;ratioP1;P2;durP2;ratioP2
11151;SDS011;5630;49.342;10.802;2023-04-24T00:00:12;2.17;;;1.77;;
11151;SDS011;5630;49.342;10.802;2023-04-24T00:02:39;2.57;;;1.70;;
11151;SDS011;5630;49.342;10.802;2023-04-24T00:05:06;2.47;;;1.50;;
11151;SDS011;5630;49.342;10.802;2023-04-24T00:07:32;2.17;;;1.60;;
11151;SDS011;5630;49.342;10.802;2023-04-24T00:09:58;3.10;;;2.10;;
11151;SDS011;5630;49.342;10.802;2023-04-24T00:12:25;5.73;;;1.60;;
11151;SDS011;5630;49.342;10.802;2023-04-24T00:14:51;2.13;;;1.63;;
11151;SDS011;5630;49.342;10.802;2023-04-24T00:17:16;1.73;;;1.47;;
11151;SDS011;5630;49.342;10.802;2023-04-24T00:19:45;2.33;;;1.70;;
11151;SDS011;5630;49.342;10.802;2023-04-24T00:22:10;1.60;;;1.47;;
11151;SDS011;5630;49.342;10.802;2023-04-24T00:24:38;2.10;;;1.50;;
11151;SDS011;5630;49.342;10.802;2023-04-24T00:27:04;1.47;;;1.30;;
11151;SDS011;5630;49.342;10.802;2023-04-24T00:29:29;1.97;;;1.40;;
11151;SDS011;5630;49.342;10.802;2023-04-24T00:31:55;2.40;;;1.67;;
11151;SDS011;5630;49.342;10.802;2023-04-24T00:34:20;3.17;;;1.50;;
11151;SDS011;5630;49.342;10.802;2023-04-24T00:36:46;2.33;;;1.47;;
11151;SDS011;5630;49.342;10.802;2023-04-24T00:39:13;3.13;;;1.70;;
11151;SDS011;5630;49.342;10.802;2023-04-24T00:41:39;1.43;;;1.30;;
11151;SDS011;5630;49.342;10.802;2023-04-24T00:44:05;5.10;;;1.43;;
11151;SDS011;5630;49.342;10.802;2023-04-24T00:46:31;2.00;;;1.27;;
11151;SDS011;5630;49.342;10.802;2023-04-24T00:48:56;1.57;;;1.47;;
11151;SDS011;5630;49.342;10.802;2023-04-24T00:51:24;1.60;;;1.30;;
11151;SDS011;5630;49.342;10.802;2023-04-24T00:53:49;2.73;;;1.30;;
11151;SDS011;5630;49.342;10.802;2023-04-24T00:56:16;2.43;;;1.50;;
11151;SDS011;5630;49.342;10.802;2023-04-24T00:58:42;2.10;;;1.37;;
11151;SDS011;5630;49.342;10.802;2023-04-24T01:01:08;3.53;;;1.63;;
11151;SDS011;5630;49.342;10.802;2023-04-24T01:03:34;2.07;;;1.80;;
11151;SDS011;5630;49.342;10.802;2023-04-24T01:06:03;2.70;;;1.30;;
11151;SDS011;5630;49.342;10.802;2023-04-24T01:08:30;1.40;;;1.30;;
11151;SDS011;5630;49.342;10.802;2023-04-24T01:10:56;2.30;;;1.30;;
11151;SDS011;5630;49.342;10.802;2023-04-24T01:13:23;2.77;;;1.40;;
11151;SDS011;5630;49.342;10.802;2023-04-24T01:15:48;2.63;;;1.53;;
11151;SDS011;5630;49.342;10.802;2023-04-24T01:18:14;2.43;;;1.60;;
11151;SDS011;5630;49.342;10.802;2023-04-24T01:20:40;2.70;;;1.33;;
11151;SDS011;5630;49.342;10.802;2023-04-24T01:23:07;2.23;;;1.50;;
11151;SDS011;5630;49.342;10.802;2023-04-24T01:25:33;2.43;;;1.47;;
11151;SDS011;5630;49.342;10.802;2023-04-24T01:28:00;1.63;;;1.30;;
11151;SDS011;5630;49.342;10.802;2023-04-24T01:30:26;3.83;;;1.47;;
11151;SDS011;5630;49.342;10.802;2023-04-24T01:32:52;2.37;;;1.50;;
11151;SDS011;5630;49.342;10.802;2023-04-24T01:35:18;1.40;;;1.20;;
11151;SDS011;5630;49.342;10.802;2023-04-24T01:37:44;2.33;;;1.30;;
11151;SDS011;5630;49.342;10.802;2023-04-24T01:40:10;3.20;;;1.47;;
11151;SDS011;5630;49.342;10.802;2023-04-24T01:42:36;2.40;;;1.33;;
11151;SDS011;5630;49.342;10.802;2023-04-24T01:45:02;1.23;;;1.13;;
11151;SDS011;5630;49.342;10.802;2023-04-24T01:47:30;1.90;;;1.40;;
11151;SDS011;5630;49.342;10.802;2023-04-24T01:49:57;1.93;;;1.13;;
11151;SDS011;5630;49.342;10.802;2023-04-24T01:52:23;2.30;;;1.70;;
11151;SDS011;5630;49.342;10.802;2023-04-24T01:54:49;1.87;;;1.20;;
11151;SDS011;5630;49.342;10.802;2023-04-24T01:57:15;2.33;;;1.50;;
11151;SDS011;5630;49.342;10.802;2023-04-24T01:59:41;4.50;;;1.37;;
11151;SDS011;5630;49.342;10.802;2023-04-24T02:02:07;2.13;;;1.30;;
11151;SDS011;5630;49.342;10.802;2023-04-24T02:04:33;1.53;;;1.13;;
11151;SDS011;5630;49.342;10.802;2023-04-24T02:06:58;2.83;;;1.40;;
11151;SDS011;5630;49.342;10.802;2023-04-24T02:09:24;3.37;;;1.40;;
11151;SDS011;5630;49.342;10.802;2023-04-24T02:11:50;3.33;;;1.70;;
11151;SDS011;5630;49.342;10.802;2023-04-24T02:14:15;3.07;;;1.50;;
11151;SDS011;5630;49.342;10.802;2023-04-24T02:16:41;2.50;;;1.37;;
11151;SDS011;5630;49.342;10.802;2023-04-24T02:19:07;1.40;;;1.30;;
11151;SDS011;5630;49.342;10.802;2023-04-24T02:21:32;1.43;;;1.20;;
11151;SDS011;5630;49.342;10.802;2023-04-24T02:23:58;1.83;;;1.37;;
11151;SDS011;5630;49.342;10.802;2023-04-24T02:26:24;2.97;;;1.47;;
11151;SDS011;5630;49.342;10.802;2023-04-24T02:28:49;2.63;;;1.80;;
11151;SDS011;5630;49.342;10.802;2023-04-24T02:31:15;4.00;;;1.90;;
11151;SDS011;5630;49.342;10.802;2023-04-24T02:33:41;2.90;;;1.80;;
11151;SDS011;5630;49.342;10.802;2023-04-24T02:36:06;4.43;;;1.90;;
11151;SDS011;5630;49.342;10.802;2023-04-24T02:38:32;4.17;;;1.83;;
11151;SDS011;5630;49.342;10.802;2023-04-24T02:40:57;3.17;;;1.63;;
11151;SDS011;5630;49.342;10.802;2023-04-24T02:43:23;2.63;;;1.60;;
11151;SDS011;5630;49.342;10.802;2023-04-24T02:45:49;6.63;;;2.00;;
11151;SDS011;5630;49.342;10.802;2023-04-24T02:48:14;1.60;;;1.50;;
11151;SDS011;5630;49.342;10.802;2023-04-24T02:50:40;1.33;;;1.23;;
11151;SDS011;5630;49.342;10.802;2023-04-24T02:53:06;2.63;;;1.40;;
11151;SDS011;5630;49.342;10.802;2023-04-24T02:55:31;1.67;;;1.40;;
11151;SDS011;5630;49.342;10.802;2023-04-24T02:57:57;6.07;;;1.47;;
11151;SDS011;5630;49.342;10.802;2023-04-24T03:00:23;3.20;;;1.63;;
11151;SDS011;5630;49.342;10.802;2023-04-24T03:02:48;2.30;;;1.27;;
11151;SDS011;5630;49.342;10.802;2023-04-24T03:05:14;2.37;;;1.50;;
11151;SDS011;5630;49.342;10.802;2023-04-24T03:07:40;4.47;;;1.50;;
11151;SDS011;5630;49.342;10.802;2023-04-24T03:10:06;2.30;;;1.37;;
11151;SDS011;5630;49.342;10.802;2023-04-24T03:12:32;1.73;;;1.53;;
11151;SDS011;5630;49.342;10.802;2023-04-24T03:14:58;2.20;;;1.70;;
11151;SDS011;5630;49.342;10.802;2023-04-24T03:17:23;7.17;;;1.90;;
11151;SDS011;5630;49.342;10.802;2023-04-24T03:19:49;5.53;;;1.70;;
11151;SDS011;5630;49.342;10.802;2023-04-24T03:22:15;3.67;;;1.80;;
11151;SDS011;5630;49.342;10.802;2023-04-24T03:24:40;5.20;;;2.27;;
11151;SDS011;5630;49.342;10.802;2023-04-24T03:27:06;6.27;;;2.40;;
11151;SDS011;5630;49.342;10.802;2023-04-24T03:29:31;2.77;;;1.87;;
11151;SDS011;5630;49.342;10.802;2023-04-24T03:31:57;4.20;;;2.20;;
11151;SDS011;5630;49.342;10.802;2023-04-24T03:34:22;2.90;;;1.83;;
11151;SDS011;5630;49.342;10.802;2023-04-24T03:36:48;3.03;;;1.90;;
11151;SDS011;5630;49.342;10.802;2023-04-24T03:39:14;3.40;;;1.80;;
11151;SDS011;5630;49.342;10.802;2023-04-24T03:41:39;2.87;;;1.90;;
11151;SDS011;5630;49.342;10.802;2023-04-24T03:44:05;2.10;;;1.90;;
11151;SDS011;5630;49.342;10.802;2023-04-24T03:46:30;3.90;;;1.93;;
11151;SDS011;5630;49.342;10.802;2023-04-24T03:48:56;1.90;;;1.70;;
11151;SDS011;5630;49.342;10.802;2023-04-24T03:51:22;4.07;;;1.73;;
11151;SDS011;5630;49.342;10.802;2023-04-24T03:53:47;2.97;;;1.77;;
11151;SDS011;5630;49.342;10.802;2023-04-24T03:56:14;2.20;;;1.50;;
11151;SDS011;5630;49.342;10.802;2023-04-24T03:58:39;3.50;;;1.40;;
11151;SDS011;5630;49.342;10.802;2023-04-24T04:01:05;6.37;;;1.50;;
11151;SDS011;5630;49.342;10.802;2023-04-24T04:03:31;3.20;;;1.70;;
11151;SDS011;5630;49.342;10.802;2023-04-24T04:05:56;2.23;;;1.70;;
11151;SDS011;5630;49.342;10.802;2023-04-24T04:08:22;3.30;;;1.60;;
11151;SDS011;5630;49.342;10.802;2023-04-24T04:10:48;2.53;;;1.80;;
11151;SDS011;5630;49.342;10.802;2023-04-24T04:13:13;3.03;;;1.80;;
11151;SDS011;5630;49.342;10.802;2023-04-24T04:15:39;2.50;;;1.60;;
11151;SDS011;5630;49.342;10.802;2023-04-24T04:18:05;4.50;;;1.67;;
11151;SDS011;5630;49.342;10.802;2023-04-24T04:20:30;3.43;;;1.87;;
11151;SDS011;5630;49.342;10.802;2023-04-24T04:22:56;3.80;;;1.70;;
11151;SDS011;5630;49.342;10.802;2023-04-24T04:25:21;4.90;;;2.10;;
11151;SDS011;5630;49.342;10.802;2023-04-24T04:27:48;3.23;;;1.77;;
11151;SDS011;5630;49.342;10.802;2023-04-24T04:30:13;3.57;;;1.70;;
11151;SDS011;5630;49.342;10.802;2023-04-24T04:32:39;4.33;;;1.80;;
11151;SDS011;5630;49.342;10.802;2023-04-24T04:35:05;2.33;;;1.60;;
11151;SDS011;5630;49.342;10.802;2023-04-24T04:37:34;2.97;;;1.70;;
11151;SDS011;5630;49.342;10.802;2023-04-24T04:40:00;1.80;;;1.60;;
11151;SDS011;5630;49.342;10.802;2023-04-24T04:42:26;3.67;;;1.80;;
11151;SDS011;5630;49.342;10.802;2023-04-24T04:44:53;3.37;;;1.93;;
11151;SDS011;5630;49.342;10.802;2023-04-24T04:47:20;4.33;;;2.20;;
11151;SDS011;5630;49.342;10.802;2023-04-24T04:49:48;5.60;;;1.90;;
11151;SDS011;5630;49.342;10.802;2023-04-24T04:52:13;4.40;;;2.13;;
11151;SDS011;5630;49.342;10.802;2023-04-24T04:54:39;6.13;;;1.90;;
11151;SDS011;5630;49.342;10.802;2023-04-24T04:57:05;3.53;;;1.90;;
11151;SDS011;5630;49.342;10.802;2023-04-24T04:59:31;2.50;;;2.00;;
11151;SDS011;5630;49.342;10.802;2023-04-24T05:01:56;2.40;;;1.73;;
11151;SDS011;5630;49.342;10.802;2023-04-24T05:04:22;5.37;;;1.90;;
11151;SDS011;5630;49.342;10.802;2023-04-24T05:06:47;4.53;;;2.00;;
11151;SDS011;5630;49.342;10.802;2023-04-24T05:09:13;4.73;;;1.97;;
11151;SDS011;5630;49.342;10.802;2023-04-24T05:11:38;4.70;;;2.10;;
11151;SDS011;5630;49.342;10.802;2023-04-24T05:14:04;5.27;;;2.43;;
11151;SDS011;5630;49.342;10.802;2023-04-24T05:16:30;2.93;;;2.00;;
11151;SDS011;5630;49.342;10.802;2023-04-24T05:18:55;4.57;;;2.00;;
11151;SDS011;5630;49.342;10.802;2023-04-24T05:21:21;6.20;;;2.50;;
11151;SDS011;5630;49.342;10.802;2023-04-24T05:23:47;4.67;;;2.50;;
11151;SDS011;5630;49.342;10.802;2023-04-24T05:26:13;5.67;;;2.60;;
11151;SDS011;5630;49.342;10.802;2023-04-24T05:28:39;5.17;;;2.70;;
11151;SDS011;5630;49.342;10.802;2023-04-24T05:31:05;7.93;;;3.20;;
11151;SDS011;5630;49.342;10.802;2023-04-24T05:33:31;3.33;;;2.30;;
11151;SDS011;5630;49.342;10.802;2023-04-24T05:35:57;3.40;;;1.77;;
11151;SDS011;5630;49.342;10.802;2023-04-24T05:38:22;3.63;;;1.63;;
11151;SDS011;5630;49.342;10.802;2023-04-24T05:40:48;2.03;;;1.40;;
11151;SDS011;5630;49.342;10.802;2023-04-24T05:43:13;4.17;;;1.80;;
11151;SDS011;5630;49.342;10.802;2023-04-24T05:45:39;6.97;;;1.70;;
11151;SDS011;5630;49.342;10.802;2023-04-24T05:48:05;2.93;;;1.50;;
11151;SDS011;5630;49.342;10.802;2023-04-24T05:50:31;5.70;;;1.60;;
11151;SDS011;5630;49.342;10.802;2023-04-24T05:52:56;2.30;;;1.50;;
11151;SDS011;5630;49.342;10.802;2023-04-24T05:55:26;3.43;;;1.40;;
11151;SDS011;5630;49.342;10.802;2023-04-24T05:57:52;2.30;;;1.30;;
11151;SDS011;5630;49.342;10.802;2023-04-24T06:00:18;2.33;;;1.60;;
11151;SDS011;5630;49.342;10.802;2023-04-24T06:02:45;2.83;;;1.57;;
11151;SDS011;5630;49.342;10.802;2023-04-24T06:05:11;4.27;;;1.40;;
11151;SDS011;5630;49.342;10.802;2023-04-24T06:07:37;2.33;;;1.53;;
11151;SDS011;5630;49.342;10.802;2023-04-24T06:10:02;3.40;;;1.50;;
11151;SDS011;5630;49.342;10.802;2023-04-24T06:12:28;2.83;;;1.63;;
11151;SDS011;5630;49.342;10.802;2023-04-24T06:14:54;3.20;;;1.87;;
11151;SDS011;5630;49.342;10.802;2023-04-24T06:17:20;4.13;;;1.90;;
11151;SDS011;5630;49.342;10.802;2023-04-24T06:19:46;2.17;;;1.40;;
11151;SDS011;5630;49.342;10.802;2023-04-24T06:22:12;2.27;;;1.47;;
11151;SDS011;5630;49.342;10.802;2023-04-24T06:24:39;3.57;;;1.27;;
11151;SDS011;5630;49.342;10.802;2023-04-24T06:27:05;2.53;;;1.20;;
11151;SDS011;5630;49.342;10.802;2023-04-24T06:29:30;2.03;;;1.23;;
11151;SDS011;5630;49.342;10.802;2023-04-24T06:31:56;2.50;;;1.20;;
11151;SDS011;5630;49.342;10.802;2023-04-24T06:34:22;1.50;;;1.17;;
11151;SDS011;5630;49.342;10.802;2023-04-24T06:36:47;3.23;;;1.10;;
11151;SDS011;5630;49.342;10.802;2023-04-24T06:39:13;1.87;;;1.10;;
11151;SDS011;5630;49.342;10.802;2023-04-24T06:41:39;3.63;;;1.40;;
11151;SDS011;5630;49.342;10.802;2023-04-24T06:44:05;3.77;;;1.23;;
11151;SDS011;5630;49.342;10.802;2023-04-24T06:46:30;2.93;;;0.97;;
11151;SDS011;5630;49.342;10.802;2023-04-24T06:48:56;3.10;;;1.33;;
11151;SDS011;5630;49.342;10.802;2023-04-24T06:51:22;1.63;;;1.20;;
11151;SDS011;5630;49.342;10.802;2023-04-24T06:53:49;1.20;;;1.10;;
11151;SDS011;5630;49.342;10.802;2023-04-24T06:56:15;2.03;;;1.57;;
11151;SDS011;5630;49.342;10.802;2023-04-24T06:58:40;1.50;;;1.40;;
11151;SDS011;5630;49.342;10.802;2023-04-24T07:01:06;2.10;;;1.40;;
11151;SDS011;5630;49.342;10.802;2023-04-24T07:03:32;1.97;;;1.53;;
11151;SDS011;5630;49.342;10.802;2023-04-24T07:05:57;2.43;;;2.13;;
11151;SDS011;5630;49.342;10.802;2023-04-24T07:08:23;2.10;;;1.50;;
11151;SDS011;5630;49.342;10.802;2023-04-24T07:10:50;2.37;;;1.60;;
11151;SDS011;5630;49.342;10.802;2023-04-24T07:13:16;3.47;;;1.87;;
11151;SDS011;5630;49.342;10.802;2023-04-24T07:15:42;3.87;;;1.90;;
11151;SDS011;5630;49.342;10.802;2023-04-24T07:18:08;6.20;;;2.27;;
11151;SDS011;5630;49.342;10.802;2023-04-24T07:20:34;3.93;;;2.67;;
11151;SDS011;5630;49.342;10.802;2023-04-24T07:22:59;2.93;;;2.23;;
11151;SDS011;5630;49.342;10.802;2023-04-24T07:25:25;5.37;;;3.27;;
11151;SDS011;5630;49.342;10.802;2023-04-24T07:27:51;5.33;;;3.90;;
11151;SDS011;5630;49.342;10.802;2023-04-24T07:30:17;4.30;;;3.00;;
11151;SDS011;5630;49.342;10.802;2023-04-24T07:32:42;4.73;;;2.10;;
11151;SDS011;5630;49.342;10.802;2023-04-24T07:35:08;5.87;;;3.80;;
11151;SDS011;5630;49.342;10.802;2023-04-24T07:37:34;6.57;;;5.00;;
11151;SDS011;5630;49.342;10.802;2023-04-24T07:40:00;4.47;;;2.50;;
11151;SDS011;5630;49.342;10.802;2023-04-24T07:42:26;5.93;;;3.70;;
11151;SDS011;5630;49.342;10.802;2023-04-24T07:44:52;6.77;;;4.60;;
11151;SDS011;5630;49.342;10.802;2023-04-24T07:47:18;3.70;;;3.30;;
11151;SDS011;5630;49.342;10.802;2023-04-24T07:49:43;4.03;;;3.63;;
11151;SDS011;5630;49.342;10.802;2023-04-24T07:52:09;2.73;;;2.53;;
11151;SDS011;5630;49.342;10.802;2023-04-24T07:54:34;4.47;;;3.20;;
11151;SDS011;5630;49.342;10.802;2023-04-24T07:57:02;5.13;;;3.50;;
11151;SDS011;5630;49.342;10.802;2023-04-24T07:59:27;4.77;;;3.40;;
11151;SDS011;5630;49.342;10.802;2023-04-24T08:01:53;4.20;;;3.00;;
11151;SDS011;5630;49.342;10.802;2023-04-24T08:04:19;3.97;;;3.17;;
11151;SDS011;5630;49.342;10.802;2023-04-24T08:06:44;5.63;;;2.57;;
11151;SDS011;5630;49.342;10.802;2023-04-24T08:09:11;4.60;;;2.80;;
11151;SDS011;5630;49.342;10.802;2023-04-24T08:11:37;3.70;;;3.03;;
11151;SDS011;5630;49.342;10.802;2023-04-24T08:14:02;4.40;;;2.87;;
11151;SDS011;5630;49.342;10.802;2023-04-24T08:16:28;3.70;;;3.00;;
11151;SDS011;5630;49.342;10.802;2023-04-24T08:18:54;4.67;;;2.60;;
11151;SDS011;5630;49.342;10.802;2023-04-24T08:21:19;5.00;;;3.23;;
11151;SDS011;5630;49.342;10.802;2023-04-24T08:23:45;4.60;;;3.60;;
11151;SDS011;5630;49.342;10.802;2023-04-24T08:26:11;3.50;;;3.20;;
11151;SDS011;5630;49.342;10.802;2023-04-24T08:28:38;4.73;;;2.50;;
11151;SDS011;5630;49.342;10.802;2023-04-24T08:31:04;3.47;;;2.90;;
11151;SDS011;5630;49.342;10.802;2023-04-24T08:33:29;3.53;;;2.80;;
11151;SDS011;5630;49.342;10.802;2023-04-24T08:35:59;5.63;;;2.90;;
11151;SDS011;5630;49.342;10.802;2023-04-24T08:38:28;5.43;;;2.87;;
11151;SDS011;5630;49.342;10.802;2023-04-24T08:40:54;3.60;;;2.73;;
11151;SDS011;5630;49.342;10.802;2023-04-24T08:43:22;4.37;;;3.10;;
11151;SDS011;5630;49.342;10.802;2023-04-24T08:45:49;3.97;;;3.00;;
11151;SDS011;5630;49.342;10.802;2023-04-24T08:48:15;3.40;;;2.70;;
11151;SDS011;5630;49.342;10.802;2023-04-24T08:50:42;2.67;;;2.13;;
11151;SDS011;5630;49.342;10.802;2023-04-24T08:53:09;2.40;;;2.10;;
11151;SDS011;5630;49.342;10.802;2023-04-24T08:55:36;2.20;;;2.00;;
11151;SDS011;5630;49.342;10.802;2023-04-24T08:58:02;2.20;;;2.00;;
11151;SDS011;5630;49.342;10.802;2023-04-24T09:00:29;3.70;;;2.30;;
11151;SDS011;5630;49.342;10.802;2023-04-24T09:02:55;4.50;;;2.30;;
11151;SDS011;5630;49.342;10.802;2023-04-24T09:05:21;3.47;;;2.70;;
11151;SDS011;5630;49.342;10.802;2023-04-24T09:07:55;2.70;;;2.20;;
11151;SDS011;5630;49.342;10.802;2023-04-24T09:10:24;4.50;;;2.60;;
11151;SDS011;5630;49.342;10.802;2023-04-24T09:12:51;4.13;;;2.30;;
11151;SDS011;5630;49.342;10.802;2023-04-24T09:15:18;5.53;;;2.73;;
11151;SDS011;5630;49.342;10.802;2023-04-24T09:17:45;2.97;;;2.70;;
11151;SDS011;5630;49.342;10.802;2023-04-24T09:20:11;3.83;;;2.00;;
11151;SDS011;5630;49.342;10.802;2023-04-24T09:22:37;3.33;;;2.00;;
11151;SDS011;5630;49.342;10.802;2023-04-24T09:25:06;3.60;;;2.00;;
11151;SDS011;5630;49.342;10.802;2023-04-24T09:27:33;3.23;;;2.07;;
11151;SDS011;5630;49.342;10.802;2023-04-24T09:30:00;3.23;;;2.07;;
11151;SDS011;5630;49.342;10.802;2023-04-24T09:32:26;4.53;;;2.10;;
11151;SDS011;5630;49.342;10.802;2023-04-24T09:37:36;4.00;;;2.00;;
11151;SDS011;5630;49.342;10.802;2023-04-24T09:40:07;2.00;;;1.80;;
11151;SDS011;5630;49.342;10.802;2023-04-24T09:42:37;3.40;;;2.00;;
11151;SDS011;5630;49.342;10.802;2023-04-24T09:45:04;3.50;;;2.13;;
11151;SDS011;5630;49.342;10.802;2023-04-24T09:47:40;3.63;;;1.80;;
11151;SDS011;5630;49.342;10.802;2023-04-24T09:50:10;3.73;;;1.70;;
11151;SDS011;5630;49.342;10.802;2023-04-24T09:52:37;3.07;;;1.57;;
11151;SDS011;5630;49.342;10.802;2023-04-24T09:55:16;2.23;;;1.60;;
11151;SDS011;5630;49.342;10.802;2023-04-24T09:57:49;1.70;;;1.60;;
11151;SDS011;5630;49.342;10.802;2023-04-24T10:00:23;3.00;;;1.50;;
11151;SDS011;5630;49.342;10.802;2023-04-24T10:02:54;4.10;;;1.83;;
11151;SDS011;5630;49.342;10.802;2023-04-24T10:05:24;3.23;;;1.70;;
11151;SDS011;5630;49.342;10.802;2023-04-24T10:07:55;2.57;;;2.27;;
11151;SDS011;5630;49.342;10.802;2023-04-24T10:10:22;2.60;;;1.70;;
11151;SDS011;5630;49.342;10.802;2023-04-24T10:12:48;2.67;;;1.80;;
11151;SDS011;5630;49.342;10.802;2023-04-24T10:15:15;2.43;;;1.80;;
11151;SDS011;5630;49.342;10.802;2023-04-24T10:17:45;2.37;;;1.53;;
11151;SDS011;5630;49.342;10.802;2023-04-24T10:20:22;1.60;;;1.40;;
11151;SDS011;5630;49.342;10.802;2023-04-24T10:22:49;4.07;;;1.67;;
11151;SDS011;5630;49.342;10.802;2023-04-24T10:25:20;3.20;;;1.40;;
11151;SDS011;5630;49.342;10.802;2023-04-24T10:27:48;2.10;;;1.23;;
11151;SDS011;5630;49.342;10.802;2023-04-24T10:30:14;2.53;;;1.40;;
11151;SDS011;5630;49.342;10.802;2023-04-24T10:32:41;4.53;;;1.33;;
11151;SDS011;5630;49.342;10.802;2023-04-24T10:35:07;2.90;;;1.20;;
11151;SDS011;5630;49.342;10.802;2023-04-24T10:37:45;3.70;;;1.20;;
11151;SDS011;5630;49.342;10.802;2023-04-24T10:40:16;4.40;;;1.80;;
11151;SDS011;5630;49.342;10.802;2023-04-24T10:42:43;8.27;;;2.20;;
11151;SDS011;5630;49.342;10.802;2023-04-24T10:45:16;2.40;;;1.90;;
11151;SDS011;5630;49.342;10.802;2023-04-24T10:47:50;2.97;;;1.57;;
11151;SDS011;5630;49.342;10.802;2023-04-24T10:50:17;3.27;;;1.60;;
11151;SDS011;5630;49.342;10.802;2023-04-24T10:52:46;2.43;;;1.50;;
11151;SDS011;5630;49.342;10.802;2023-04-24T10:55:13;2.10;;;1.53;;
11151;SDS011;5630;49.342;10.802;2023-04-24T10:57:40;1.30;;;1.20;;
11151;SDS011;5630;49.342;10.802;2023-04-24T11:00:27;1.67;;;1.40;;
11151;SDS011;5630;49.342;10.802;2023-04-24T11:02:53;1.47;;;1.27;;
11151;SDS011;5630;49.342;10.802;2023-04-24T11:05:19;3.57;;;1.07;;
11151;SDS011;5630;49.342;10.802;2023-04-24T11:10:44;1.70;;;1.40;;
11151;SDS011;5630;49.342;10.802;2023-04-24T11:13:13;2.20;;;1.20;;
11151;SDS011;5630;49.342;10.802;2023-04-24T11:15:42;1.63;;;1.33;;
11151;SDS011;5630;49.342;10.802;2023-04-24T11:18:14;1.70;;;1.40;;
11151;SDS011;5630;49.342;10.802;2023-04-24T11:20:44;2.70;;;1.53;;
11151;SDS011;5630;49.342;10.802;2023-04-24T11:23:12;3.90;;;1.90;;
11151;SDS011;5630;49.342;10.802;2023-04-24T11:25:38;2.53;;;1.87;;
11151;SDS011;5630;49.342;10.802;2023-04-24T11:28:04;2.33;;;1.67;;
11151;SDS011;5630;49.342;10.802;2023-04-24T11:30:30;3.33;;;1.83;;
11151;SDS011;5630;49.342;10.802;2023-04-24T11:33:01;6.13;;;2.10;;
11151;SDS011;5630;49.342;10.802;2023-04-24T11:35:27;2.13;;;1.70;;
11151;SDS011;5630;49.342;10.802;2023-04-24T11:37:55;3.90;;;1.83;;
11151;SDS011;5630;49.342;10.802;2023-04-24T11:40:21;4.03;;;1.90;;
11151;SDS011;5630;49.342;10.802;2023-04-24T11:42:48;4.13;;;1.83;;
11151;SDS011;5630;49.342;10.802;2023-04-24T11:45:20;2.90;;;1.70;;
11151;SDS011;5630;49.342;10.802;2023-04-24T11:47:47;2.00;;;1.60;;
11151;SDS011;5630;49.342;10.802;2023-04-24T11:50:14;1.73;;;1.50;;
11151;SDS011;5630;49.342;10.802;2023-04-24T11:52:42;8.33;;;2.10;;
11151;SDS011;5630;49.342;10.802;2023-04-24T11:57:48;2.37;;;1.77;;
11151;SDS011;5630;49.342;10.802;2023-04-24T12:00:15;4.43;;;1.97;;
11151;SDS011;5630;49.342;10.802;2023-04-24T12:02:43;2.53;;;1.83;;
11151;SDS011;5630;49.342;10.802;2023-04-24T12:05:09;2.10;;;1.90;;
11151;SDS011;5630;49.342;10.802;2023-04-24T12:07:47;2.10;;;1.90;;
11151;SDS011;5630;49.342;10.802;2023-04-24T12:10:14;2.27;;;1.80;;
11151;SDS011;5630;49.342;10.802;2023-04-24T12:12:40;4.00;;;1.90;;
11151;SDS011;5630;49.342;10.802;2023-04-24T12:15:08;3.83;;;1.90;;
11151;SDS011;5630;49.342;10.802;2023-04-24T12:17:35;3.33;;;1.70;;
11151;SDS011;5630;49.342;10.802;2023-04-24T12:20:04;1.90;;;1.60;;
11151;SDS011;5630;49.342;10.802;2023-04-24T12:22:44;2.10;;;1.50;;
11151;SDS011;5630;49.342;10.802;2023-04-24T12:25:11;3.03;;;1.70;;
11151;SDS011;5630;49.342;10.802;2023-04-24T12:27:37;2.30;;;2.10;;
11151;SDS011;5630;49.342;10.802;2023-04-24T12:30:03;2.47;;;1.90;;
11151;SDS011;5630;49.342;10.802;2023-04-24T12:32:30;2.50;;;1.90;;
11151;SDS011;5630;49.342;10.802;2023-04-24T12:34:56;2.27;;;1.80;;
11151;SDS011;5630;49.342;10.802;2023-04-24T12:37:23;1.93;;;1.73;;
11151;SDS011;5630;49.342;10.802;2023-04-24T12:40:04;1.97;;;1.80;;
11151;SDS011;5630;49.342;10.802;2023-04-24T12:42:33;2.30;;;2.10;;
11151;SDS011;5630;49.342;10.802;2023-04-24T12:45:06;2.60;;;2.23;;
11151;SDS011;5630;49.342;10.802;2023-04-24T12:47:33;4.23;;;2.20;;
11151;SDS011;5630;49.342;10.802;2023-04-24T12:49:59;4.07;;;1.97;;
11151;SDS011;5630;49.342;10.802;2023-04-24T12:52:26;2.10;;;1.90;;
11151;SDS011;5630;49.342;10.802;2023-04-24T12:54:54;3.17;;;2.10;;
11151;SDS011;5630;49.342;10.802;2023-04-24T12:57:22;2.07;;;1.87;;
11151;SDS011;5630;49.342;10.802;2023-04-24T12:59:48;4.50;;;2.00;;
11151;SDS011;5630;49.342;10.802;2023-04-24T13:02:13;5.53;;;1.90;;
11151;SDS011;5630;49.342;10.802;2023-04-24T13:04:42;2.10;;;1.90;;
11151;SDS011;5630;49.342;10.802;2023-04-24T13:07:12;3.40;;;1.77;;
11151;SDS011;5630;49.342;10.802;2023-04-24T13:09:42;3.50;;;2.00;;
11151;SDS011;5630;49.342;10.802;2023-04-24T13:12:09;3.03;;;2.17;;
11151;SDS011;5630;49.342;10.802;2023-04-24T13:14:35;2.67;;;2.00;;
11151;SDS011;5630;49.342;10.802;2023-04-24T13:17:01;3.53;;;2.20;;
11151;SDS011;5630;49.342;10.802;2023-04-24T13:19:28;2.53;;;2.33;;
11151;SDS011;5630;49.342;10.802;2023-04-24T13:21:54;2.37;;;2.13;;
11151;SDS011;5630;49.342;10.802;2023-04-24T13:24:21;4.23;;;2.80;;
11151;SDS011;5630;49.342;10.802;2023-04-24T13:26:51;3.83;;;3.10;;
11151;SDS011;5630;49.342;10.802;2023-04-24T13:29:17;4.10;;;3.17;;
11151;SDS011;5630;49.342;10.802;2023-04-24T13:31:43;4.50;;;3.00;;
11151;SDS011;5630;49.342;10.802;2023-04-24T13:34:09;4.40;;;3.17;;
11151;SDS011;5630;49.342;10.802;2023-04-24T13:36:35;4.13;;;3.40;;
11151;SDS011;5630;49.342;10.802;2023-04-24T13:39:01;5.70;;;3.53;;
11151;SDS011;5630;49.342;10.802;2023-04-24T13:41:29;3.73;;;3.23;;
11151;SDS011;5630;49.342;10.802;2023-04-24T13:43:55;5.33;;;3.10;;
11151;SDS011;5630;49.342;10.802;2023-04-24T13:46:20;3.40;;;2.90;;
11151;SDS011;5630;49.342;10.802;2023-04-24T13:48:46;3.07;;;2.87;;
11151;SDS011;5630;49.342;10.802;2023-04-24T13:51:11;4.13;;;2.77;;
11151;SDS011;5630;49.342;10.802;2023-04-24T13:53:37;3.37;;;2.80;;
11151;SDS011;5630;49.342;10.802;2023-04-24T13:56:03;2.80;;;2.20;;
11151;SDS011;5630;49.342;10.802;2023-04-24T13:58:30;3.70;;;2.20;;
11151;SDS011;5630;49.342;10.802;2023-04-24T14:00:57;2.43;;;2.23;;
11151;SDS011;5630;49.342;10.802;2023-04-24T14:03:22;4.23;;;2.60;;
11151;SDS011;5630;49.342;10.802;2023-04-24T14:05:48;3.47;;;2.30;;
11151;SDS011;5630;49.342;10.802;2023-04-24T14:08:13;4.27;;;2.23;;
11151;SDS011;5630;49.342;10.802;2023-04-24T14:10:39;2.47;;;2.27;;
11151;SDS011;5630;49.342;10.802;2023-04-24T14:13:04;2.60;;;2.40;;
11151;SDS011;5630;49.342;10.802;2023-04-24T14:15:31;2.60;;;2.40;;
11151;SDS011;5630;49.342;10.802;2023-04-24T14:17:57;3.73;;;2.73;;
11151;SDS011;5630;49.342;10.802;2023-04-24T14:20:22;3.33;;;2.93;;
11151;SDS011;5630;49.342;10.802;2023-04-24T14:22:48;5.53;;;3.47;;
11151;SDS011;5630;49.342;10.802;2023-04-24T14:25:13;5.47;;;3.27;;
11151;SDS011;5630;49.342;10.802;2023-04-24T14:27:40;3.97;;;3.20;;
11151;SDS011;5630;49.342;10.802;2023-04-24T14:30:06;2.20;;;2.00;;
11151;SDS011;5630;49.342;10.802;2023-04-24T14:32:32;2.50;;;2.30;;
11151;SDS011;5630;49.342;10.802;2023-04-24T14:34:57;2.60;;;2.40;;
11151;SDS011;5630;49.342;10.802;2023-04-24T14:37:23;3.10;;;2.80;;
11151;SDS011;5630;49.342;10.802;2023-04-24T14:39:48;2.53;;;2.33;;
11151;SDS011;5630;49.342;10.802;2023-04-24T14:42:14;3.77;;;2.63;;
11151;SDS011;5630;49.342;10.802;2023-04-24T14:44:41;2.57;;;2.37;;
11151;SDS011;5630;49.342;10.802;2023-04-24T14:47:07;2.63;;;2.43;;
11151;SDS011;5630;49.342;10.802;2023-04-24T14:49:32;4.87;;;2.90;;
11151;SDS011;5630;49.342;10.802;2023-04-24T14:51:58;3.80;;;3.07;;